Time;durP1;ratioP1;P1;durP2;ratioP2;P2;SDS_P1;SDS_P2;PMS_P1;PMS_P2;Temp;Humidity;BMP_temperature;BMP_pressure;BME280_temperature;BME280_humidity;BME280_pressure;Samples;Min_cycle;Max_cycle;Signal;HPM_P1;HPM_P2
2022/09/04 00:00:19;;;;;;;4.50;3.20;;;21.30;99.90;;;;;;10014647;28;20519;-60
2022/09/04 00:05:19;;;;;;;3.53;2.65;;;21.20;99.90;;;;;;10014237;28;20045;-59
2022/09/04 00:10:30;;;;;;;6.28;3.00;;;21.20;99.90;;;;;;10002962;28;20407;-60
2022/09/04 00:15:30;;;;;;;3.25;2.67;;;21.30;99.90;;;;;;10004426;28;20030;-59
2022/09/04 00:20:51;;;;;;;3.75;2.70;;;21.10;99.90;;;;;;10014024;28;20444;-60
2022/09/04 00:26:26;;;;;;;4.32;2.90;;;21.00;99.90;;;;;;10006470;28;20029;-60
2022/09/04 00:31:37;;;;;;;5.18;2.90;;;20.90;99.90;;;;;;9991956;28;20651;-60
2022/09/04 00:36:29;;;;;;;3.75;3.03;;;20.80;99.90;;;;;;9992484;28;20070;-60
2022/09/04 00:41:58;;;;;;;4.40;3.17;;;20.90;99.90;;;;;;10013248;28;20061;-60
2022/09/04 00:47:16;;;;;;;4.45;2.40;;;20.90;99.90;;;;;;10011728;28;20088;-61
2022/09/04 00:52:16;;;;;;;5.05;2.78;;;20.80;99.90;;;;;;9992881;28;20030;-59
2022/09/04 00:57:28;;;;;;;4.43;2.97;;;20.80;99.90;;;;;;10012939;28;20334;-59
2022/09/04 01:02:39;;;;;;;3.90;2.90;;;20.70;99.90;;;;;;10013022;28;20025;-62
2022/09/04 01:07:42;;;;;;;4.05;2.92;;;20.70;99.90;;;;;;10005968;28;20031;-59
2022/09/04 01:12:39;;;;;;;5.47;2.90;;;20.60;99.90;;;;;;10013933;28;20425;-58
2022/09/04 01:17:37;;;;;;;4.32;2.97;;;20.50;99.90;;;;;;10010338;28;20038;-60
2022/09/04 01:22:35;;;;;;;3.63;2.45;;;20.50;99.90;;;;;;10000668;28;20036;-60
2022/09/04 01:27:28;;;;;;;5.38;3.08;;;20.50;99.90;;;;;;10008103;28;20038;-59
2022/09/04 01:32:47;;;;;;;9.05;4.50;;;20.50;99.90;;;;;;10009664;28;20037;-60
2022/09/04 01:38:10;;;;;;;7.60;3.30;;;20.50;99.90;;;;;;10011462;28;20431;-60
2022/09/04 01:43:11;;;;;;;5.00;2.80;;;20.40;99.90;;;;;;10006346;28;20029;-59
2022/09/04 01:48:06;;;;;;;4.90;2.95;;;20.30;99.90;;;;;;10004216;28;20038;-59
2022/09/04 01:53:10;;;;;;;5.43;2.80;;;20.20;99.90;;;;;;10000155;28;20124;-58
2022/09/04 01:58:45;;;;;;;4.50;2.95;;;20.30;99.90;;;;;;10018420;28;20053;-59
2022/09/04 02:04:06;;;;;;;5.17;2.80;;;20.00;99.90;;;;;;9992903;28;20030;-60
2022/09/04 02:09:03;;;;;;;4.40;2.55;;;19.90;99.90;;;;;;9989208;28;20409;-60
2022/09/04 02:14:13;;;;;;;5.50;2.70;;;19.80;99.90;;;;;;10017149;28;20056;-59
2022/09/04 02:19:25;;;;;;;6.35;2.30;;;19.90;99.90;;;;;;10016494;28;20038;-58
2022/09/04 02:24:16;;;;;;;4.68;2.80;;;19.90;99.90;;;;;;10005692;28;20076;-59
2022/09/04 02:29:17;;;;;;;3.42;2.55;;;19.90;99.90;;;;;;10011226;28;20543;-59
2022/09/04 02:34:17;;;;;;;3.08;2.60;;;20.00;99.90;;;;;;10016098;28;20022;-59
2022/09/04 02:39:35;;;;;;;3.63;2.42;;;19.90;99.90;;;;;;10017326;28;20419;-62
2022/09/04 02:44:40;;;;;;;4.90;2.45;;;19.80;99.90;;;;;;10010695;28;20053;-61
2022/09/04 02:50:00;;;;;;;3.63;2.38;;;19.80;99.90;;;;;;10017284;28;20396;-62
2022/09/04 02:55:46;;;;;;;3.88;2.80;;;19.80;99.90;;;;;;10003764;28;20038;-61
2022/09/04 03:01:21;;;;;;;3.93;2.10;;;19.80;99.90;;;;;;9968218;28;20034;-61
2022/09/04 03:06:21;;;;;;;4.53;2.25;;;19.60;99.90;;;;;;10014346;28;20090;-61
2022/09/04 03:11:22;;;;;;;6.20;2.35;;;19.70;99.90;;;;;;10009880;28;20060;-60
2022/09/04 03:16:25;;;;;;;3.83;2.03;;;19.70;99.90;;;;;;10008332;28;20084;-59
2022/09/04 03:21:24;;;;;;;6.35;2.50;;;19.60;99.90;;;;;;9998991;28;20030;-60
2022/09/04 03:26:26;;;;;;;3.30;1.90;;;19.40;99.90;;;;;;10004756;28;20038;-59
2022/09/04 03:31:44;;;;;;;7.25;2.13;;;19.30;99.90;;;;;;10015240;28;20287;-61
2022/09/04 03:36:45;;;;;;;3.25;2.40;;;19.40;99.90;;;;;;10016438;28;20377;-60
2022/09/04 03:41:51;;;;;;;3.72;2.30;;;19.40;99.90;;;;;;10012496;28;20108;-60
2022/09/04 03:47:08;;;;;;;2.88;1.98;;;19.30;99.90;;;;;;10015583;28;20033;-59
2022/09/04 03:52:31;;;;;;;5.15;1.95;;;19.30;99.90;;;;;;9994470;28;20050;-60
2022/09/04 03:57:29;;;;;;;3.22;2.00;;;19.30;99.90;;;;;;10015097;28;20138;-60
2022/09/04 04:02:45;;;;;;;2.47;1.90;;;19.10;99.90;;;;;;10014703;28;20022;-59
2022/09/04 04:08:03;;;;;;;3.88;1.80;;;19.10;99.90;;;;;;10012859;28;20029;-60
2022/09/04 04:13:20;;;;;;;2.60;1.88;;;19.10;99.90;;;;;;10009658;28;20045;-60
2022/09/04 04:18:24;;;;;;;3.08;2.15;;;19.10;99.90;;;;;;10009977;28;20042;-61
2022/09/04 04:23:30;;;;;;;2.03;1.63;;;19.10;99.90;;;;;;9994383;28;20228;-60
2022/09/04 04:28:41;;;;;;;;;;;18.90;99.90;;;;;;10014682;28;20029;-60
2022/09/04 04:33:57;;;;;;;2.42;1.63;;;18.90;99.90;;;;;;9999598;28;19963;-60
2022/09/04 04:39:13;;;;;;;3.80;3.22;;;18.90;99.90;;;;;;10014246;28;20045;-60
2022/09/04 04:44:14;;;;;;;2.63;2.17;;;18.90;99.90;;;;;;10010209;28;20374;-60
2022/09/04 04:49:07;;;;;;;4.45;2.17;;;18.80;99.90;;;;;;10012899;28;20018;-60
2022/09/04 04:54:22;;;;;;;3.58;2.30;;;18.80;99.90;;;;;;9995321;28;20024;-60
2022/09/04 04:59:39;;;;;;;4.40;2.50;;;18.80;99.90;;;;;;10013548;28;20034;-61
2022/09/04 05:04:48;;;;;;;3.42;1.90;;;18.90;99.90;;;;;;10006651;28;20027;-60
2022/09/04 05:10:04;;;;;;;4.22;2.25;;;18.90;99.90;;;;;;10007814;28;20018;-60
2022/09/04 05:15:44;;;;;;;3.42;2.13;;;18.90;99.90;;;;;;10007107;28;20249;-61
2022/09/04 05:20:34;;;;;;;2.33;1.65;;;18.90;99.90;;;;;;9971226;28;20065;-60
2022/09/04 05:25:34;;;;;;;2.30;1.77;;;19.00;99.90;;;;;;10014061;28;20037;-60
2022/09/04 05:31:02;;;;;;;4.40;1.88;;;19.00;99.90;;;;;;10015228;28;20548;-60
2022/09/04 05:36:16;;;;;;;3.50;1.73;;;19.10;99.90;;;;;;10018773;28;20022;-60
2022/09/04 05:41:19;;;;;;;2.92;2.30;;;19.10;99.90;;;;;;10019364;28;20111;-61
2022/09/04 05:46:23;;;;;;;3.00;2.25;;;19.10;99.90;;;;;;10017318;28;20029;-60
2022/09/04 05:51:17;;;;;;;7.68;2.60;;;19.00;99.90;;;;;;10010445;28;20050;-59
2022/09/04 05:56:20;;;;;;;4.60;2.35;;;19.10;99.90;;;;;;10017196;28;20112;-60
2022/09/04 06:01:22;;;;;;;3.50;2.85;;;19.10;99.90;;;;;;10018985;28;20125;-60
2022/09/04 06:06:41;;;;;;;3.35;2.33;;;19.00;99.90;;;;;;10017666;28;20212;-62
2022/09/04 06:12:28;;;;;;;3.40;2.70;;;19.00;99.90;;;;;;10016113;28;20041;-60
2022/09/04 06:17:22;;;;;;;3.90;2.63;;;19.20;99.90;;;;;;9799327;29;20337;-59
2022/09/04 06:22:45;;;;;;;3.80;2.22;;;19.20;99.90;;;;;;9951254;28;20042;-60
2022/09/04 06:27:50;;;;;;;5.03;2.65;;;19.30;99.90;;;;;;9973083;28;20088;-60
2022/09/04 06:32:55;;;;;;;3.90;2.58;;;19.30;99.90;;;;;;10007114;28;20030;-60
2022/09/04 06:38:05;;;;;;;4.15;2.70;;;19.40;99.90;;;;;;10008763;28;20065;-60
2022/09/04 06:43:10;;;;;;;4.43;2.58;;;19.40;99.90;;;;;;10010048;28;20504;-62
2022/09/04 06:48:24;;;;;;;;;;;19.50;99.90;;;;;;10013684;28;20018;-60
2022/09/04 06:53:30;;;;;;;4.78;2.35;;;19.60;99.90;;;;;;9966076;28;20342;-60
2022/09/04 06:58:39;;;;;;;3.70;2.25;;;19.60;99.90;;;;;;9995896;28;20034;-59
2022/09/04 07:03:56;;;;;;;2.45;2.03;;;19.70;99.90;;;;;;10009205;28;20037;-59
2022/09/04 07:09:10;;;;;;;2.38;1.85;;;19.70;99.90;;;;;;10013221;28;20399;-60
2022/09/04 07:14:30;;;;;;;3.00;1.80;;;19.80;99.90;;;;;;10011441;28;20029;-61
2022/09/04 07:19:42;;;;;;;3.08;2.20;;;20.00;99.90;;;;;;10004589;28;20519;-60
2022/09/04 07:24:48;;;;;;;4.30;2.10;;;20.10;99.90;;;;;;10015588;28;20108;-61
2022/09/04 07:29:44;;;;;;;3.65;2.03;;;20.30;99.90;;;;;;10015770;28;20014;-60
2022/09/04 07:34:46;;;;;;;3.92;2.33;;;20.40;99.90;;;;;;10015512;28;20378;-61
2022/09/04 07:39:41;;;;;;;2.38;1.80;;;20.50;99.90;;;;;;10006988;28;20057;-59
2022/09/04 07:44:53;;;;;;;3.25;1.92;;;20.70;99.90;;;;;;10014919;28;20507;-60
2022/09/04 07:50:12;;;;;;;3.10;2.13;;;20.80;99.90;;;;;;10012733;28;20034;-61
2022/09/04 07:55:45;;;;;;;2.92;1.90;;;20.90;99.90;;;;;;10002793;28;20036;-60
2022/09/04 08:01:12;;;;;;;2.10;1.90;;;21.00;99.90;;;;;;10005089;28;20064;-61
2022/09/04 08:06:24;;;;;;;3.22;2.22;;;21.20;99.90;;;;;;10003758;28;20042;-59
2022/09/04 08:11:37;;;;;;;3.65;2.00;;;21.30;99.90;;;;;;10014225;28;20025;-60
2022/09/04 08:16:39;;;;;;;3.72;1.80;;;21.40;99.90;;;;;;10008035;28;20531;-59
2022/09/04 08:21:35;;;;;;;2.90;1.80;;;21.40;99.90;;;;;;10004894;28;20036;-61
2022/09/04 08:26:37;;;;;;;3.78;2.03;;;21.60;99.90;;;;;;10014331;28;20032;-60
2022/09/04 08:31:44;;;;;;;2.25;1.65;;;21.70;99.90;;;;;;10013595;28;20452;-60
2022/09/04 08:37:01;;;;;;;2.75;1.50;;;21.80;99.90;;;;;;10012720;28;20366;-60
2022/09/04 08:42:04;;;;;;;3.83;2.40;;;21.80;99.90;;;;;;10013559;28;20048;-61
2022/09/04 08:47:00;;;;;;;2.28;1.65;;;21.80;99.90;;;;;;10014463;28;20058;-60
2022/09/04 08:51:59;;;;;;;3.08;1.77;;;22.00;99.90;;;;;;10000050;28;20443;-60
2022/09/04 08:57:25;;;;;;;2.20;1.80;;;22.10;99.90;;;;;;9996245;28;20033;-60
2022/09/04 09:02:33;;;;;;;3.17;1.90;;;22.20;99.90;;;;;;9876202;28;20042;-60
2022/09/04 09:07:39;;;;;;;4.85;2.30;;;22.30;99.90;;;;;;10021340;28;20021;-61
2022/09/04 09:12:30;;;;;;;5.40;2.10;;;22.50;99.90;;;;;;10026853;28;20141;-60
2022/09/04 09:17:51;;;;;;;3.05;1.85;;;22.60;99.90;;;;;;10022939;28;20038;-60
2022/09/04 09:23:14;;;;;;;2.67;1.58;;;22.80;99.90;;;;;;10014292;28;20033;-61
2022/09/04 09:28:08;;;;;;;2.10;1.45;;;23.10;99.90;;;;;;10018554;28;20030;-61
2022/09/04 09:33:17;;;;;;;4.32;1.40;;;23.30;99.90;;;;;;10024813;28;20153;-60
2022/09/04 09:38:29;;;;;;;3.30;1.20;;;23.30;99.90;;;;;;10025059;28;20058;-62
2022/09/04 09:43:49;;;;;;;2.08;1.27;;;23.40;99.70;;;;;;10025486;28;20060;-62
2022/09/04 09:48:58;;;;;;;2.17;1.98;;;23.50;99.50;;;;;;10017214;28;20060;-61
2022/09/04 09:54:00;;;;;;;2.28;2.00;;;23.50;99.50;;;;;;10012974;28;20381;-62
2022/09/04 09:58:54;;;;;;;2.80;1.58;;;23.80;99.20;;;;;;10024336;28;20034;-61
2022/09/04 10:04:12;;;;;;;2.60;1.58;;;23.90;99.40;;;;;;10025660;28;20152;-62
2022/09/04 10:09:40;;;;;;;2.42;1.67;;;24.00;99.00;;;;;;10025398;28;20022;-61
2022/09/04 10:14:49;;;;;;;1.95;1.27;;;24.00;98.70;;;;;;9998102;28;20080;-61
2022/09/04 10:19:45;;;;;;;2.22;1.00;;;24.10;98.60;;;;;;10010492;28;20069;-62
2022/09/04 10:24:53;;;;;;;1.80;1.30;;;24.30;98.20;;;;;;10019352;28;20030;-61
2022/09/04 10:30:02;;;;;;;2.17;1.38;;;24.30;97.90;;;;;;10010136;28;20163;-61
2022/09/04 10:35:20;;;;;;;1.55;0.88;;;24.30;97.80;;;;;;10018260;28;20018;-61
2022/09/04 10:40:47;;;;;;;1.33;1.23;;;24.30;97.60;;;;;;9999909;28;20079;-63
2022/09/04 10:45:44;;;;;;;2.13;1.20;;;24.40;97.20;;;;;;9911952;28;20037;-61
2022/09/04 10:50:56;;;;;;;3.15;1.67;;;24.60;97.20;;;;;;10013465;28;20567;-61
2022/09/04 10:56:02;;;;;;;1.52;1.15;;;24.80;96.80;;;;;;10012574;28;20030;-61
2022/09/04 11:01:02;;;;;;;3.38;1.70;;;24.80;96.60;;;;;;10016832;28;20026;-61
2022/09/04 11:06:17;;;;;;;2.05;1.05;;;24.80;96.50;;;;;;10017440;28;20436;-62
2022/09/04 11:11:39;;;;;;;2.15;1.55;;;24.90;96.10;;;;;;10016546;28;20049;-60
2022/09/04 11:16:39;;;;;;;2.45;1.10;;;24.90;95.80;;;;;;10011140;28;20026;-61
2022/09/04 11:21:35;;;;;;;1.50;1.00;;;25.00;95.80;;;;;;10016732;28;20536;-62
2022/09/04 11:27:14;;;;;;;1.63;1.20;;;25.10;95.50;;;;;;10016774;28;20071;-60
2022/09/04 11:32:30;;;;;;;2.55;1.08;;;25.20;95.20;;;;;;10015438;28;20026;-61
2022/09/04 11:37:42;;;;;;;2.10;1.35;;;25.30;94.90;;;;;;10012991;28;20042;-61
2022/09/04 11:42:39;;;;;;;3.00;1.77;;;25.70;94.70;;;;;;10015447;28;20096;-61
2022/09/04 11:47:47;;;;;;;2.22;1.50;;;25.90;94.50;;;;;;10009768;28;20522;-60
2022/09/04 11:53:07;;;;;;;2.95;2.08;;;25.90;93.90;;;;;;10002575;28;20050;-59
2022/09/04 11:58:35;;;;;;;1.95;1.40;;;26.00;93.60;;;;;;10013343;28;20523;-59
2022/09/04 12:04:02;;;;;;;2.50;1.67;;;26.00;93.00;;;;;;10010230;28;20109;-60
2022/09/04 12:09:08;;;;;;;4.22;1.60;;;26.20;92.70;;;;;;10005028;28;20560;-60
2022/09/04 12:14:29;;;;;;;2.28;1.45;;;26.70;92.00;;;;;;10012138;28;20075;-60
2022/09/04 12:19:51;;;;;;;1.63;0.88;;;27.00;91.60;;;;;;10010013;28;20042;-60
2022/09/04 12:24:55;;;;;;;1.10;0.95;;;27.20;90.70;;;;;;10004571;28;20308;-60
2022/09/04 12:30:04;;;;;;;1.10;1.00;;;27.60;90.80;;;;;;10013600;28;20113;-60
2022/09/04 12:35:17;;;;;;;1.92;1.27;;;27.80;90.60;;;;;;10005316;28;20418;-60
2022/09/04 12:40:16;;;;;;;3.75;1.15;;;27.90;90.00;;;;;;10011904;28;20456;-60
2022/09/04 12:45:16;;;;;;;2.92;1.52;;;28.30;90.10;;;;;;10011318;28;20040;-62
2022/09/04 12:50:26;;;;;;;1.88;1.45;;;28.50;89.60;;;;;;10003509;28;20274;-60
2022/09/04 12:55:44;;;;;;;2.00;1.10;;;29.30;88.70;;;;;;9989643;28;20260;-61
2022/09/04 13:00:51;;;;;;;2.28;1.10;;;29.30;88.40;;;;;;10012533;28;20543;-60
2022/09/04 13:06:08;;;;;;;2.85;1.55;;;28.60;87.50;;;;;;10013198;28;20030;-60
2022/09/04 13:11:16;;;;;;;4.03;1.35;;;28.30;86.80;;;;;;9974651;28;20656;-61
2022/09/04 13:16:37;;;;;;;2.78;1.13;;;28.70;86.30;;;;;;9997124;28;20535;-61
2022/09/04 13:21:54;;;;;;;2.03;1.25;;;28.50;84.60;;;;;;10005426;28;20392;-60
2022/09/04 13:27:03;;;;;;;1.20;1.10;;;29.10;85.20;;;;;;10013669;28;20030;-60
2022/09/04 13:32:14;;;;;;;2.30;1.60;;;30.60;83.10;;;;;;10009698;28;20026;-61
2022/09/04 13:37:22;;;;;;;3.95;1.73;;;31.80;80.60;;;;;;10012774;28;20120;-60
2022/09/04 13:42:22;;;;;;;3.15;1.33;;;31.90;76.50;;;;;;9931451;28;20074;-61
2022/09/04 13:47:25;;;;;;;2.78;1.33;;;33.30;74.70;;;;;;9934924;28;20378;-61
2022/09/04 13:52:26;;;;;;;2.08;1.08;;;34.70;71.00;;;;;;9926135;28;20055;-60
2022/09/04 13:57:17;;;;;;;;;;;34.80;68.40;;;;;;9942402;28;20126;-60
2022/09/04 14:02:11;;;;;;;;;;;35.70;66.30;;;;;;9933818;28;19973;-60
2022/09/04 14:07:10;;;;;;;1.38;1.20;;;36.10;66.00;;;;;;9940709;28;19906;-61
2022/09/04 14:12:31;;;;;;;1.15;1.02;;;34.50;66.00;;;;;;9935595;28;20267;-60
2022/09/04 14:17:32;;;;;;;1.92;1.05;;;33.40;64.50;;;;;;9935678;28;20110;-61
2022/09/04 14:22:31;;;;;;;1.43;1.10;;;34.00;62.60;;;;;;9940115;28;20053;-61
2022/09/04 14:27:48;;;;;;;2.65;1.35;;;34.80;61.20;;;;;;9940996;28;20027;-59
2022/09/04 14:33:13;;;;;;;1.45;1.20;;;35.60;58.70;;;;;;9929439;28;20513;-60
2022/09/04 14:38:34;;;;;;;4.32;1.30;;;35.60;56.80;;;;;;9956578;28;20069;-61
2022/09/04 14:43:33;;;;;;;1.30;1.05;;;35.30;55.60;;;;;;10016213;28;20452;-61
2022/09/04 14:48:24;;;;;;;1.77;1.30;;;35.80;55.90;;;;;;10018835;28;20385;-61
2022/09/04 14:53:30;;;;;;;3.10;1.95;;;36.00;55.30;;;;;;10006444;28;20026;-59
2022/09/04 14:58:30;;;;;;;1.83;1.13;;;35.60;53.40;;;;;;10005952;28;20063;-61
2022/09/04 15:03:27;;;;;;;2.45;1.27;;;34.00;54.40;;;;;;10011867;28;20718;-61
2022/09/04 15:08:28;;;;;;;2.92;2.30;;;33.20;55.20;;;;;;10014489;28;20038;-61
2022/09/04 15:13:27;;;;;;;2.78;1.92;;;35.30;52.50;;;;;;10016748;28;20026;-60
2022/09/04 15:18:29;;;;;;;1.50;1.20;;;37.00;50.80;;;;;;10014171;28;20075;-59
2022/09/04 15:23:34;;;;;;;2.15;1.38;;;37.90;50.00;;;;;;10008618;28;20485;-60
2022/09/04 15:28:39;;;;;;;2.58;1.30;;;39.30;48.60;;;;;;9997892;28;20424;-61
2022/09/04 15:33:30;;;;;;;1.35;1.13;;;40.50;47.10;;;;;;10015342;28;20037;-61
2022/09/04 15:38:26;;;;;;;2.08;1.58;;;41.30;46.20;;;;;;10012071;28;20394;-60
2022/09/04 15:43:49;;;;;;;2.38;1.40;;;41.70;45.10;;;;;;10015160;28;20017;-61
2022/09/04 15:49:12;;;;;;;2.00;1.58;;;41.50;43.60;;;;;;9946078;28;20092;-60
2022/09/04 15:54:20;;;;;;;2.10;1.90;;;41.40;43.60;;;;;;10003251;28;20250;-61
2022/09/04 15:59:17;;;;;;;1.75;1.50;;;41.50;43.10;;;;;;10014413;28;20052;-60
2022/09/04 16:04:26;;;;;;;2.00;1.80;;;41.80;42.50;;;;;;10013264;28;20030;-62
2022/09/04 16:09:23;;;;;;;2.40;1.42;;;41.80;41.60;;;;;;10012271;28;20028;-61
2022/09/04 16:14:19;;;;;;;2.33;1.80;;;41.60;41.70;;;;;;10010976;28;20116;-61
2022/09/04 16:19:25;;;;;;;3.00;1.52;;;41.80;41.20;;;;;;10004446;28;20085;-60
2022/09/04 16:24:23;;;;;;;1.40;1.30;;;41.80;40.60;;;;;;10001869;28;20029;-60
2022/09/04 16:29:29;;;;;;;2.58;1.80;;;42.00;40.30;;;;;;10013577;28;20040;-62
2022/09/04 16:34:25;;;;;;;1.60;1.38;;;42.30;39.50;;;;;;10013899;28;20064;-60
2022/09/04 16:39:31;;;;;;;1.30;1.20;;;42.40;39.30;;;;;;10013659;28;20058;-61
2022/09/04 16:44:35;;;;;;;2.53;1.65;;;42.50;38.90;;;;;;10013657;28;20218;-61
2022/09/04 16:49:35;;;;;;;1.38;1.27;;;42.40;39.00;;;;;;10007627;28;20036;-62
2022/09/04 16:54:47;;;;;;;3.30;1.23;;;42.20;39.00;;;;;;9997976;28;20489;-62
2022/09/04 17:00:07;;;;;;;1.88;1.52;;;41.80;38.90;;;;;;10012338;28;20053;-62
2022/09/04 17:05:33;;;;;;;1.48;1.35;;;41.30;38.80;;;;;;10000852;28;20512;-63
2022/09/04 17:10:40;;;;;;;1.88;1.40;;;40.50;39.20;;;;;;9999630;28;20087;-61
2022/09/04 17:16:02;;;;;;;3.78;2.15;;;38.60;40.40;;;;;;10006762;28;20026;-62
2022/09/04 17:21:05;;;;;;;3.27;2.67;;;35.30;42.60;;;;;;9993629;28;20447;-61
2022/09/04 17:26:08;;;;;;;4.15;2.50;;;32.50;45.20;;;;;;10005661;28;20477;-62
2022/09/04 17:31:18;;;;;;;3.67;2.00;;;31.10;46.40;;;;;;10001761;28;20490;-59
2022/09/04 17:36:36;;;;;;;2.75;1.50;;;30.40;48.00;;;;;;10011355;28;20121;-59
2022/09/04 17:41:37;;;;;;;2.60;1.52;;;29.90;47.80;;;;;;10004774;28;20108;-60
2022/09/04 17:46:49;;;;;;;3.03;1.50;;;29.60;48.30;;;;;;10013757;28;20045;-60
2022/09/04 17:51:49;;;;;;;3.00;1.70;;;29.30;48.70;;;;;;10019667;28;20021;-61
2022/09/04 17:56:49;;;;;;;5.03;2.50;;;29.10;49.00;;;;;;10018525;28;20037;-62
2022/09/04 18:01:50;;;;;;;4.88;2.25;;;28.90;49.30;;;;;;10001313;28;20566;-62
2022/09/04 18:06:48;;;;;;;4.38;2.00;;;28.70;49.80;;;;;;10021697;28;20028;-61
2022/09/04 18:12:12;;;;;;;2.47;2.20;;;28.50;50.40;;;;;;10014051;28;20053;-62
2022/09/04 18:17:09;;;;;;;6.30;4.28;;;28.30;50.90;;;;;;9979364;28;20057;-60
2022/09/04 18:22:10;;;;;;;6.65;3.33;;;28.20;51.20;;;;;;10012000;28;20030;-60
2022/09/04 18:27:07;;;;;;;10.48;3.10;;;28.10;51.80;;;;;;10009954;28;20034;-61
2022/09/04 18:32:06;;;;;;;5.28;2.88;;;27.90;52.10;;;;;;10015778;28;20053;-66
2022/09/04 18:37:04;;;;;;;6.88;2.78;;;27.80;52.80;;;;;;10008058;28;20034;-68
2022/09/04 18:42:19;;;;;;;5.28;2.85;;;27.70;53.20;;;;;;10015003;28;20053;-66
2022/09/04 18:47:37;;;;;;;4.65;2.65;;;27.50;53.70;;;;;;10011468;28;20563;-64
2022/09/04 18:52:49;;;;;;;4.38;2.33;;;27.50;54.20;;;;;;10001220;28;20030;-64
2022/09/04 18:57:48;;;;;;;6.15;2.20;;;27.40;54.50;;;;;;10018713;28;20029;-64
2022/09/04 19:02:52;;;;;;;6.97;2.95;;;27.40;54.80;;;;;;10017937;28;20026;-64
2022/09/04 19:08:01;;;;;;;6.25;2.75;;;27.30;55.10;;;;;;10013098;28;20028;-63
2022/09/04 19:13:01;;;;;;;4.80;2.75;;;27.20;55.50;;;;;;10014912;28;20029;-63
2022/09/04 19:17:58;;;;;;;5.25;2.75;;;27.10;55.70;;;;;;10005647;28;20045;-62
2022/09/04 19:22:57;;;;;;;5.15;3.25;;;26.80;56.20;;;;;;10010987;28;20105;-64
2022/09/04 19:27:57;;;;;;;5.90;2.78;;;26.80;56.50;;;;;;10015881;28;20034;-65
2022/09/04 19:33:14;;;;;;;5.03;2.88;;;26.70;56.80;;;;;;10015328;28;20034;-66
2022/09/04 19:38:14;;;;;;;6.30;2.55;;;26.60;57.10;;;;;;10008838;28;20056;-66
2022/09/04 19:43:29;;;;;;;8.35;4.72;;;26.50;57.10;;;;;;10002174;28;20504;-68
2022/09/04 19:48:44;;;;;;;4.45;2.50;;;26.50;57.50;;;;;;10009911;28;20095;-63
2022/09/04 19:53:48;;;;;;;6.07;2.60;;;26.40;57.70;;;;;;9999706;28;20041;-66
2022/09/04 19:58:45;;;;;;;4.65;2.80;;;26.30;57.80;;;;;;10013115;28;20057;-64
2022/09/04 20:03:49;;;;;;;4.47;2.92;;;26.20;58.00;;;;;;10016289;28;20033;-62
2022/09/04 20:08:45;;;;;;;4.63;2.15;;;26.10;58.20;;;;;;10014841;28;20039;-65
2022/09/04 20:13:45;;;;;;;4.90;2.55;;;26.10;58.50;;;;;;10015765;28;20455;-66
2022/09/04 20:18:41;;;;;;;9.48;4.10;;;26.10;58.70;;;;;;10009515;28;20037;-67
2022/09/04 20:23:36;;;;;;;7.18;2.60;;;26.10;59.10;;;;;;10015826;28;20080;-64
2022/09/04 20:28:50;;;;;;;4.00;1.67;;;26.00;59.00;;;;;;10013373;28;20041;-64
2022/09/04 20:33:43;;;;;;;3.33;1.80;;;26.00;59.40;;;;;;10000780;28;20052;-65
2022/09/04 20:39:00;;;;;;;2.40;1.73;;;26.00;59.90;;;;;;10002571;28;20054;-67
2022/09/04 20:44:24;;;;;;;2.47;1.45;;;26.00;60.50;;;;;;10002684;28;20018;-63
2022/09/04 20:49:37;;;;;;;2.75;1.48;;;25.90;60.70;;;;;;10010059;28;20040;-66
2022/09/04 20:55:03;;;;;;;1.90;1.45;;;25.80;61.10;;;;;;9984486;28;20432;-65
2022/09/04 21:00:07;;;;;;;3.25;1.63;;;25.70;61.40;;;;;;9990876;28;20045;-66
2022/09/04 21:05:20;;;;;;;2.08;1.70;;;25.70;61.90;;;;;;10002129;28;20026;-64
2022/09/04 21:10:28;;;;;;;5.13;2.30;;;25.70;62.00;;;;;;10005642;28;20076;-65
2022/09/04 21:15:52;;;;;;;5.40;1.80;;;25.60;62.10;;;;;;10005699;28;20026;-62
2022/09/04 21:21:08;;;;;;;2.00;1.67;;;25.50;62.50;;;;;;10013671;28;20120;-62
2022/09/04 21:26:10;;;;;;;3.58;1.73;;;25.30;62.70;;;;;;10002683;28;20447;-64
2022/09/04 21:31:05;;;;;;;1.95;1.42;;;25.40;62.90;;;;;;10008157;28;20022;-63
2022/09/04 21:36:01;;;;;;;;;;;25.20;63.60;;;;;;10013723;28;20163;-61
2022/09/04 21:41:15;;;;;;;1.75;1.17;;;25.10;63.80;;;;;;10012558;28;20323;-64
2022/09/04 21:46:21;;;;;;;2.83;1.83;;;25.20;63.90;;;;;;10008675;28;20432;-67
2022/09/04 21:51:15;;;;;;;5.15;1.98;;;25.10;64.00;;;;;;10004151;28;20034;-66
2022/09/04 21:56:43;;;;;;;10.27;2.28;;;25.10;64.30;;;;;;10004504;28;20027;-68
2022/09/04 22:01:48;;;;;;;3.88;2.72;;;25.10;64.90;;;;;;10012648;28;20117;-67
2022/09/04 22:06:51;;;;;;;2.78;2.40;;;24.90;65.50;;;;;;10012075;28;20562;-61
2022/09/04 22:11:45;;;;;;;3.65;2.42;;;24.90;65.80;;;;;;10012218;28;20109;-69
2022/09/04 22:16:35;;;;;;;2.50;1.70;;;24.70;66.20;;;;;;10015735;28;20022;-63
2022/09/04 22:21:48;;;;;;;3.88;2.13;;;24.80;66.40;;;;;;10012801;28;20488;-63
2022/09/04 22:27:00;;;;;;;3.42;2.22;;;24.60;66.90;;;;;;10013110;28;20098;-62
2022/09/04 22:32:03;;;;;;;2.13;1.65;;;24.40;68.10;;;;;;10017548;28;20022;-63
2022/09/04 22:37:26;;;;;;;6.00;2.30;;;24.50;67.80;;;;;;10017926;28;20045;-62
2022/09/04 22:42:42;;;;;;;3.50;2.20;;;24.40;68.30;;;;;;10013414;28;20046;-63
2022/09/04 22:47:51;;;;;;;4.07;2.20;;;24.30;68.70;;;;;;10017861;28;20172;-62
2022/09/04 22:53:09;;;;;;;2.97;2.40;;;24.30;68.90;;;;;;9998000;28;20033;-62
2022/09/04 22:58:16;;;;;;;1.70;1.50;;;24.10;69.50;;;;;;10015984;28;20444;-62
2022/09/04 23:03:28;;;;;;;2.80;2.40;;;24.10;69.50;;;;;;10016704;28;20607;-62
2022/09/04 23:08:49;;;;;;;6.50;2.72;;;24.00;69.80;;;;;;10004414;28;20030;-64
2022/09/04 23:13:58;;;;;;;2.28;2.03;;;23.80;70.40;;;;;;10016597;28;20220;-62
2022/09/04 23:19:03;;;;;;;3.92;2.72;;;23.80;70.70;;;;;;10015371;28;20068;-62
2022/09/04 23:24:13;;;;;;;3.45;2.05;;;23.40;71.20;;;;;;10009704;28;20104;-62
2022/09/04 23:29:22;;;;;;;2.97;2.00;;;23.40;71.70;;;;;;10014833;28;20017;-61
2022/09/04 23:34:43;;;;;;;6.00;2.00;;;23.40;71.70;;;;;;10015391;28;20123;-62
2022/09/04 23:39:58;;;;;;;5.10;3.60;;;23.40;72.30;;;;;;10014892;28;20573;-62
2022/09/04 23:45:15;;;;;;;2.92;1.80;;;23.30;72.60;;;;;;10013310;28;20499;-62
2022/09/04 23:50:18;;;;;;;2.20;1.42;;;23.40;73.10;;;;;;10013759;28;20030;-61
2022/09/04 23:55:11;;;;;;;3.80;1.90;;;23.40;73.40;;;;;;10015496;28;20048;-61
